createdAt,value
2022-08-26T00:01:40.185Z,77.26
2022-08-26T00:04:42.025Z,77.91
2022-08-26T00:07:44.162Z,78.12
2022-08-26T00:10:46.031Z,78.37
2022-08-26T00:13:48.905Z,78.37
2022-08-26T00:16:51.854Z,78.19
2022-08-26T00:19:57.164Z,78.62
2022-08-26T00:22:58.845Z,78.81
2022-08-26T00:26:01.331Z,78.59
2022-08-26T00:29:03.904Z,78.65
2022-08-26T00:32:07.012Z,78.86
2022-08-26T00:35:10.434Z,79.47
2022-08-26T00:38:13.373Z,79.53
2022-08-26T00:41:15.386Z,79.55
2022-08-26T00:44:19.558Z,79.88
2022-08-26T00:47:28.547Z,79.92
2022-08-26T00:50:38.490Z,80.43
2022-08-26T00:53:48.193Z,80.65
2022-08-26T00:56:53.428Z,81.11
2022-08-26T00:59:58.899Z,81.27
2022-08-26T01:03:03.460Z,81.23
2022-08-26T01:06:12.574Z,81.89
2022-08-26T01:09:16.254Z,82.07
2022-08-26T01:12:22.217Z,82.54
2022-08-26T01:15:32.953Z,82.75
2022-08-26T01:18:35.927Z,82.43
2022-08-26T01:22:03.626Z,82.62
2022-08-26T01:25:05.928Z,82.91
2022-08-26T01:28:14.637Z,82.99
2022-08-26T01:31:23.786Z,83.20
2022-08-26T01:34:35.068Z,83.08
2022-08-26T01:37:40.504Z,83.41
2022-08-26T01:40:44.023Z,83.83
2022-08-26T01:43:48.455Z,83.76
2022-08-26T01:46:52.235Z,83.78
2022-08-26T01:49:56.762Z,83.86
2022-08-26T01:53:02.624Z,83.86
2022-08-26T01:56:05.345Z,83.85
2022-08-26T01:59:11.293Z,84.06
2022-08-26T02:02:14.039Z,84.21
2022-08-26T02:05:19.419Z,84.57
2022-08-26T02:08:39.247Z,84.44
2022-08-26T02:11:41.160Z,84.52
2022-08-26T02:14:50.154Z,84.75
2022-08-26T02:17:53.231Z,85.25
2022-08-26T02:20:56.377Z,85.25
2022-08-26T02:24:08.999Z,85.51
2022-08-26T02:27:10.686Z,85.49
2022-08-26T02:30:18.114Z,85.77
2022-08-26T02:33:19.817Z,85.98
2022-08-26T02:36:25.043Z,86.51
2022-08-26T02:39:31.827Z,86.57
2022-08-26T02:42:34.060Z,86.44
2022-08-26T02:45:36.051Z,86.57
2022-08-26T02:48:37.741Z,86.55
2022-08-26T02:51:39.447Z,86.80
2022-08-26T02:54:41.842Z,86.80
2022-08-26T02:57:43.740Z,86.68
2022-08-26T03:00:52.539Z,86.48
2022-08-26T03:03:56.178Z,86.73
2022-08-26T03:06:58.685Z,87.04
2022-08-26T03:10:01.520Z,87.11
2022-08-26T03:13:10.073Z,87.49
2022-08-26T03:16:13.411Z,87.58
2022-08-26T03:19:15.325Z,87.50
2022-08-26T03:22:19.430Z,87.67
2022-08-26T03:25:23.032Z,87.64
2022-08-26T03:28:27.209Z,87.51
2022-08-26T03:31:29.838Z,87.60
2022-08-26T03:34:31.985Z,87.80
2022-08-26T03:37:33.663Z,88.03
2022-08-26T03:40:36.767Z,88.15
2022-08-26T03:43:40.708Z,88.35
2022-08-26T03:46:42.445Z,88.76
2022-08-26T03:49:45.751Z,88.83
2022-08-26T03:52:47.939Z,90.08
2022-08-26T03:55:51.887Z,90.21
2022-08-26T03:58:54.240Z,90.24
2022-08-26T04:01:56.033Z,90.65
2022-08-26T04:04:57.740Z,90.69
2022-08-26T04:07:59.580Z,90.88
2022-08-26T04:11:01.294Z,90.73
2022-08-26T04:14:14.288Z,90.61
2022-08-26T04:17:20.068Z,90.67
2022-08-26T04:20:27.269Z,90.46
2022-08-26T04:23:29.853Z,90.59
2022-08-26T04:26:39.509Z,90.28
2022-08-26T04:29:46.263Z,90.26
2022-08-26T04:32:54.234Z,90.34
2022-08-26T04:36:01.004Z,90.02
2022-08-26T04:39:05.337Z,89.88
2022-08-26T04:42:07.037Z,90.02
2022-08-26T04:45:10.395Z,90.08
2022-08-26T04:48:13.485Z,89.92
2022-08-26T04:51:20.997Z,90.04
2022-08-26T04:54:22.746Z,90.03
2022-08-26T04:57:24.450Z,90.09
2022-08-26T05:00:26.131Z,89.97
2022-08-26T05:03:30.539Z,89.86
2022-08-26T05:06:36.823Z,90.02
2022-08-26T05:09:42.055Z,90.06
2022-08-26T05:12:44.360Z,90.31
2022-08-26T05:15:47.034Z,89.99
2022-08-26T05:18:48.982Z,89.97
2022-08-26T05:21:50.649Z,89.62
2022-08-26T05:24:52.300Z,89.53
2022-08-26T05:27:54.313Z,89.48
2022-08-26T05:30:56.351Z,89.28
2022-08-26T05:33:59.286Z,89.45
2022-08-26T05:37:00.952Z,89.23
2022-08-26T05:40:04.610Z,89.21
2022-08-26T05:43:10.410Z,89.15
2022-08-26T05:46:12.394Z,89.12
2022-08-26T05:49:15.840Z,88.89
2022-08-26T05:52:17.759Z,88.54
2022-08-26T05:55:20.652Z,88.09
2022-08-26T05:58:23.109Z,86.39
2022-08-26T06:01:28.022Z,85.50
2022-08-26T06:04:29.914Z,84.50
2022-08-26T06:07:50.367Z,85.11
2022-08-26T06:10:59.822Z,85.76
2022-08-26T06:14:06.076Z,86.14
2022-08-26T06:17:31.791Z,86.48
2022-08-26T06:20:36.922Z,86.75
2022-08-26T06:23:57.847Z,86.63
2022-08-26T06:27:04.955Z,86.87
2022-08-26T06:30:07.344Z,86.52
2022-08-26T06:36:55.519Z,85.85
2022-08-26T06:40:05.607Z,84.77
2022-08-26T06:43:09.221Z,84.96
2022-08-26T06:46:12.854Z,84.79
2022-08-26T06:49:14.496Z,84.25
2022-08-26T06:52:24.422Z,84.29
2022-08-26T06:55:26.941Z,84.20
2022-08-26T06:58:28.906Z,83.94
2022-08-26T07:01:33.762Z,82.90
2022-08-26T07:04:36.174Z,81.56
2022-08-26T07:07:38.457Z,80.49
2022-08-26T07:10:40.122Z,78.81
2022-08-26T07:13:41.867Z,77.07
2022-08-26T07:16:45.086Z,75.45
2022-08-26T07:19:48.926Z,74.58
2022-08-26T07:22:51.066Z,74.40
2022-08-26T07:25:52.746Z,74.20
2022-08-26T07:28:56.218Z,73.65
2022-08-26T07:31:58.487Z,72.98
2022-08-26T07:35:01.510Z,73.82
2022-08-26T07:38:03.467Z,73.65
2022-08-26T07:41:06.107Z,73.36
2022-08-26T07:44:10.225Z,72.51
2022-08-26T07:47:24.984Z,71.74
2022-08-26T07:50:38.429Z,71.93
2022-08-26T07:53:52.403Z,71.13
2022-08-26T07:56:55.856Z,70.41
2022-08-26T07:59:59.088Z,70.38
2022-08-26T08:03:02.652Z,68.73
2022-08-26T08:06:04.626Z,68.37
2022-08-26T08:09:07.905Z,67.07
2022-08-26T08:12:14.112Z,66.19
2022-08-26T08:15:20.398Z,65.89
2022-08-26T08:18:23.392Z,64.54
2022-08-26T08:21:25.905Z,63.29
2022-08-26T08:24:27.724Z,63.22
2022-08-26T08:27:29.513Z,63.24
2022-08-26T08:30:31.841Z,63.69
2022-08-26T08:33:36.847Z,63.45
2022-08-26T08:36:40.183Z,63.93
2022-08-26T08:39:43.263Z,61.74
2022-08-26T08:43:07.099Z,61.33
2022-08-26T08:46:15.406Z,62.85
2022-08-26T08:49:18.553Z,62.56
2022-08-26T08:52:29.474Z,60.70
2022-08-26T08:55:55.593Z,61.05
2022-08-26T08:59:56.868Z,61.78
2022-08-26T09:03:11.965Z,61.76
2022-08-26T09:06:22.620Z,60.70
2022-08-26T09:09:50.999Z,61.00
2022-08-26T09:12:53.096Z,61.47
2022-08-26T09:16:14.050Z,60.11
2022-08-26T09:19:52.320Z,59.79
2022-08-26T09:26:32.572Z,58.97
2022-08-26T09:29:50.490Z,57.69
2022-08-26T09:33:02.491Z,58.31
2022-08-26T09:36:26.305Z,58.12
2022-08-26T09:39:38.583Z,58.97
2022-08-26T09:42:40.392Z,59.13
2022-08-26T09:45:58.489Z,59.06
2022-08-26T09:49:32.665Z,59.05
2022-08-26T09:52:38.208Z,59.51
2022-08-26T09:55:45.776Z,59.33
2022-08-26T09:58:48.279Z,59.26
2022-08-26T10:01:50.136Z,59.33
2022-08-26T10:04:55.334Z,58.70
2022-08-26T10:07:59.572Z,58.33
2022-08-26T10:11:24.572Z,58.10
2022-08-26T10:14:48.893Z,57.63
2022-08-26T10:18:03.630Z,57.01
2022-08-26T10:21:29.117Z,57.00
2022-08-26T10:24:41.866Z,55.95
2022-08-26T10:27:58.952Z,56.27
2022-08-26T10:31:14.751Z,55.69
2022-08-26T10:34:18.601Z,55.73
2022-08-26T10:37:31.140Z,55.23
2022-08-26T10:41:09.810Z,53.71
2022-08-26T10:44:16.096Z,54.22
2022-08-26T10:47:46.107Z,53.93
2022-08-26T10:50:48.719Z,53.73
2022-08-26T10:53:58.987Z,53.31
2022-08-26T10:57:10.953Z,52.77
2022-08-26T11:00:50.002Z,52.49
2022-08-26T11:04:10.653Z,52.82
2022-08-26T11:07:43.273Z,53.10
2022-08-26T11:10:59.999Z,51.88
2022-08-26T11:14:05.079Z,52.00
2022-08-26T11:17:09.461Z,50.71
2022-08-26T11:20:23.874Z,49.56
2022-08-26T11:23:28.953Z,48.60
2022-08-26T11:26:55.397Z,48.18
2022-08-26T11:30:13.156Z,49.29
2022-08-26T11:33:47.923Z,48.90
2022-08-26T11:37:04.044Z,49.17
2022-08-26T11:40:12.359Z,49.16
2022-08-26T11:43:30.566Z,48.97
2022-08-26T11:46:37.970Z,49.73
2022-08-26T11:49:41.802Z,49.31
2022-08-26T11:53:13.911Z,47.49
2022-08-26T12:05:09.190Z,48.64
2022-08-26T12:08:24.865Z,48.66
2022-08-26T12:11:34.616Z,49.49
2022-08-26T12:18:45.966Z,50.87
2022-08-26T12:21:49.107Z,50.60
2022-08-26T12:24:59.864Z,51.00
2022-08-26T12:28:05.586Z,51.17
2022-08-26T12:31:08.355Z,51.39
2022-08-26T12:34:18.130Z,50.34
2022-08-26T12:37:20.389Z,51.65
2022-08-26T12:40:43.587Z,52.01
2022-08-26T12:43:45.999Z,51.31
2022-08-26T12:46:49.786Z,51.43
2022-08-26T12:50:03.418Z,51.24
2022-08-26T12:53:17.841Z,51.67
2022-08-26T12:56:29.400Z,51.54
2022-08-26T12:59:31.061Z,52.17
2022-08-26T13:02:38.314Z,53.57
2022-08-26T13:05:40.088Z,54.07
2022-08-26T13:08:49.375Z,54.27
2022-08-26T13:11:53.163Z,54.35
2022-08-26T13:14:55.282Z,54.37
2022-08-26T13:17:58.294Z,54.09
2022-08-26T13:21:00.332Z,54.07
2022-08-26T13:24:09.444Z,54.60
2022-08-26T13:27:14.358Z,54.31
2022-08-26T13:30:16.254Z,54.83
2022-08-26T13:33:18.589Z,54.02
2022-08-26T13:36:20.359Z,53.77
2022-08-26T13:39:22.830Z,54.33
2022-08-26T13:42:24.617Z,54.45
2022-08-26T13:45:26.286Z,53.03
2022-08-26T13:48:28.056Z,52.55
2022-08-26T13:51:30.034Z,52.26
2022-08-26T13:54:31.738Z,52.11
2022-08-26T13:57:33.692Z,52.11
2022-08-26T14:00:44.096Z,51.93
2022-08-26T14:03:46.319Z,51.52
2022-08-26T14:06:48.207Z,52.64
2022-08-26T14:09:50.122Z,53.02
2022-08-26T14:12:52.797Z,51.74
2022-08-26T14:15:54.681Z,52.73
2022-08-26T14:18:56.391Z,53.58
2022-08-26T14:22:00.801Z,54.46
2022-08-26T14:25:02.985Z,55.67
2022-08-26T14:28:04.997Z,56.27
2022-08-26T14:31:07.184Z,57.43
2022-08-26T14:34:09.716Z,56.97
2022-08-26T14:37:19.047Z,57.67
2022-08-26T14:40:22.790Z,57.84
2022-08-26T14:43:24.529Z,58.54
2022-08-26T14:46:29.444Z,58.25
2022-08-26T14:49:32.347Z,58.55
2022-08-26T14:52:53.973Z,57.88
2022-08-26T14:55:55.659Z,57.82
2022-08-26T14:58:57.449Z,57.67
2022-08-26T15:02:00.708Z,57.99
2022-08-26T15:05:04.432Z,58.37
2022-08-26T15:08:13.951Z,58.49
2022-08-26T15:11:20.469Z,58.08
2022-08-26T15:14:26.759Z,57.74
2022-08-26T15:17:29.477Z,57.59
2022-08-26T15:20:38.748Z,58.03
2022-08-26T15:23:47.620Z,58.71
2022-08-26T15:26:50.112Z,58.71
2022-08-26T15:29:51.895Z,58.90
2022-08-26T15:32:53.695Z,59.05
2022-08-26T15:35:55.873Z,59.22
2022-08-26T15:39:04.526Z,59.14
2022-08-26T15:42:15.128Z,58.99
2022-08-26T15:45:25.999Z,59.13
2022-08-26T15:48:34.347Z,59.06
2022-08-26T15:51:45.843Z,58.40
2022-08-26T15:54:47.869Z,57.55
2022-08-26T15:57:51.713Z,57.46
2022-08-26T16:00:57.632Z,57.47
2022-08-26T16:03:59.798Z,58.29
2022-08-26T16:07:01.991Z,58.54
2022-08-26T16:10:04.046Z,59.88
2022-08-26T16:13:27.112Z,60.37
2022-08-26T16:16:41.480Z,61.13
2022-08-26T16:19:43.337Z,61.34
2022-08-26T16:22:45.078Z,61.87
2022-08-26T16:25:47.087Z,62.63
2022-08-26T16:28:49.144Z,63.31
2022-08-26T16:31:53.373Z,64.37
2022-08-26T16:34:56.695Z,65.20
2022-08-26T16:37:58.794Z,65.70
2022-08-26T16:41:01.246Z,66.29
2022-08-26T16:44:04.199Z,67.01
2022-08-26T16:47:06.088Z,67.51
2022-08-26T16:50:13.021Z,68.16
2022-08-26T16:56:18.973Z,68.94
2022-08-26T16:59:24.063Z,69.70
2022-08-26T17:02:28.911Z,70.58
2022-08-26T17:05:30.783Z,70.50
2022-08-26T17:08:40.100Z,70.87
2022-08-26T17:11:42.072Z,71.62
2022-08-26T17:14:43.834Z,71.67
2022-08-26T17:17:50.888Z,72.05
2022-08-26T17:20:55.529Z,72.16
2022-08-26T17:23:57.403Z,72.46
2022-08-26T17:26:59.071Z,72.81
2022-08-26T17:30:00.697Z,73.54
2022-08-26T17:33:02.627Z,74.21
2022-08-26T17:36:12.481Z,74.96
2022-08-26T17:39:14.442Z,75.11
2022-08-26T17:42:16.401Z,75.50
2022-08-26T17:45:21.739Z,75.97
2022-08-26T17:48:29.602Z,75.69
2022-08-26T17:51:31.417Z,76.68
2022-08-26T17:54:33.133Z,77.17
2022-08-26T17:57:40.556Z,77.60
2022-08-26T18:00:45.005Z,77.67
2022-08-26T18:03:50.079Z,78.02
2022-08-26T18:06:51.876Z,78.53
2022-08-26T18:09:53.633Z,78.77
2022-08-26T18:12:57.629Z,79.35
2022-08-26T18:15:59.934Z,79.18
2022-08-26T18:19:01.988Z,79.77
2022-08-26T18:22:03.897Z,80.00
2022-08-26T18:25:07.759Z,79.63
2022-08-26T18:28:09.896Z,80.16
2022-08-26T18:31:11.695Z,80.59
2022-08-26T18:34:15.436Z,80.47
2022-08-26T18:37:17.313Z,81.12
2022-08-26T18:40:19.058Z,80.55
2022-08-26T18:43:21.324Z,81.60
2022-08-26T18:46:25.380Z,81.62
2022-08-26T18:49:27.932Z,81.49
2022-08-26T18:52:32.971Z,81.95
2022-08-26T18:55:39.676Z,82.09
2022-08-26T18:58:41.535Z,82.26
2022-08-26T19:01:46.648Z,82.14
2022-08-26T19:04:54.422Z,82.43
2022-08-26T19:07:57.163Z,81.87
2022-08-26T19:11:01.232Z,82.25
2022-08-26T19:14:08.216Z,82.11
2022-08-26T19:17:10.901Z,82.22
2022-08-26T19:20:12.681Z,82.13
2022-08-26T19:23:30.959Z,83.33
2022-08-26T19:26:34.360Z,84.16
2022-08-26T19:29:36.318Z,85.65
2022-08-26T19:32:38.273Z,87.46
2022-08-26T19:35:45.035Z,88.54
2022-08-26T19:38:47.681Z,89.51
2022-08-26T19:41:49.490Z,89.86
2022-08-26T19:45:24.346Z,90.21
2022-08-26T19:48:27.356Z,90.22
2022-08-26T19:51:31.733Z,89.78
2022-08-26T19:54:34.151Z,89.75
2022-08-26T19:57:36.890Z,89.97
2022-08-26T20:00:39.803Z,90.14
2022-08-26T20:03:42.151Z,90.25
2022-08-26T20:06:43.793Z,90.60
2022-08-26T20:09:46.770Z,90.54
2022-08-26T20:12:51.855Z,90.86
2022-08-26T20:15:53.549Z,91.47
2022-08-26T20:19:13.687Z,92.15
2022-08-26T20:22:15.599Z,92.86
2022-08-26T20:25:17.348Z,94.28
2022-08-26T20:28:19.120Z,96.74
2022-08-26T20:31:21.619Z,97.86
2022-08-26T20:34:23.396Z,98.62
2022-08-26T20:37:25.270Z,98.57
2022-08-26T20:40:27.089Z,98.89
2022-08-26T20:43:29.421Z,99.69
2022-08-26T20:46:34.612Z,99.95
2022-08-26T20:49:36.312Z,99.43
2022-08-26T20:52:38.665Z,99.00
2022-08-26T20:55:40.302Z,98.61
2022-08-26T20:58:42.355Z,98.56
2022-08-26T21:01:45.508Z,99.64
2022-08-26T21:04:47.493Z,99.86
2022-08-26T21:07:49.300Z,100.00
2022-08-26T21:10:51.597Z,100.00
2022-08-26T21:14:06.701Z,100.00
2022-08-26T21:17:16.330Z,100.00
2022-08-26T21:20:18.658Z,99.50
2022-08-26T21:23:20.407Z,98.92
2022-08-26T21:26:22.706Z,98.81
2022-08-26T21:29:24.461Z,99.20
2022-08-26T21:32:26.404Z,99.67
2022-08-26T21:35:28.071Z,99.69
2022-08-26T21:38:31.065Z,99.61
2022-08-26T21:41:32.809Z,99.38
2022-08-26T21:44:34.577Z,98.82
2022-08-26T21:47:36.477Z,99.26
2022-08-26T21:50:38.273Z,99.35
2022-08-26T21:53:40.657Z,99.03
2022-08-26T21:56:46.776Z,99.21
2022-08-26T21:59:48.499Z,100.00
2022-08-26T22:02:50.234Z,100.00
2022-08-26T22:05:52.645Z,100.00
2022-08-26T22:08:55.922Z,100.00
2022-08-26T22:11:58.135Z,100.00
2022-08-26T22:14:59.828Z,100.00
2022-08-26T22:18:05.297Z,100.00
2022-08-26T22:21:09.604Z,100.00
2022-08-26T22:24:12.270Z,100.00
2022-08-26T22:27:14.761Z,100.00
2022-08-26T22:30:16.483Z,100.00
2022-08-26T22:33:18.793Z,100.00
2022-08-26T22:36:28.861Z,100.00
2022-08-26T22:39:31.133Z,100.00
2022-08-26T22:42:33.237Z,100.00
2022-08-26T22:45:35.070Z,100.00
2022-08-26T22:48:38.505Z,100.00
2022-08-26T22:51:40.164Z,100.00
2022-08-26T22:54:41.812Z,100.00
2022-08-26T22:57:43.714Z,100.00
2022-08-26T23:00:47.963Z,100.00
2022-08-26T23:03:49.886Z,100.00
2022-08-26T23:06:51.592Z,100.00
2022-08-26T23:09:53.213Z,100.00
2022-08-26T23:12:54.871Z,100.00
2022-08-26T23:16:09.201Z,100.00
2022-08-26T23:19:14.534Z,100.00
2022-08-26T23:22:17.471Z,100.00
2022-08-26T23:25:19.419Z,100.00
2022-08-26T23:28:23.043Z,100.00
2022-08-26T23:31:24.990Z,100.00
2022-08-26T23:34:45.269Z,100.00
2022-08-26T23:37:54.105Z,100.00
2022-08-26T23:40:57.263Z,100.00
2022-08-26T23:44:03.304Z,100.00
2022-08-26T23:47:06.124Z,100.00
2022-08-26T23:50:08.974Z,100.00
2022-08-26T23:53:11.239Z,100.00
2022-08-26T23:56:15.880Z,100.00
2022-08-26T23:59:17.595Z,100.00
